createdAt,value
2019-04-01T00:00:49.965Z,41.6
2019-04-01T00:02:50.222Z,38.4
2019-04-01T00:04:49.972Z,40.3
2019-04-01T00:06:50.380Z,40.3
2019-04-01T00:08:49.605Z,38.5
2019-04-01T00:10:49.885Z,39.6
2019-04-01T00:12:50.111Z,37.5
2019-04-01T00:14:50.319Z,38.5
2019-04-01T00:16:49.713Z,38.0
2019-04-01T00:19:03.165Z,39.0
2019-04-01T00:20:50.121Z,39.0
2019-04-01T00:22:50.651Z,38.4
2019-04-01T00:24:49.579Z,38.4
2019-04-01T00:26:50.020Z,37.3
2019-04-01T00:28:50.279Z,37.3
2019-04-01T00:30:50.499Z,39.0
2019-04-01T00:32:49.737Z,38.1
2019-04-01T00:34:49.532Z,37.8
2019-04-01T00:36:49.969Z,38.6
2019-04-01T00:38:50.205Z,38.6
2019-04-01T00:40:50.397Z,37.3
2019-04-01T00:42:49.619Z,38.1
2019-04-01T00:44:49.865Z,38.1
2019-04-01T00:46:50.223Z,37.2
2019-04-01T00:48:50.511Z,37.2
2019-04-01T00:50:49.690Z,39.1
2019-04-01T00:52:49.979Z,38.4
2019-04-01T00:54:50.187Z,38.4
2019-04-01T00:56:50.555Z,38.4
2019-04-01T00:58:49.807Z,38.4
2019-04-01T01:00:50.015Z,37.9
2019-04-01T01:02:50.280Z,37.8
2019-04-01T01:04:49.979Z,37.8
2019-04-01T01:06:50.429Z,38.4
2019-04-01T01:08:49.643Z,38.1
2019-04-01T01:10:49.838Z,39.5
2019-04-01T01:12:50.318Z,37.3
2019-04-01T01:14:49.714Z,37.3
2019-04-01T01:16:50.497Z,38.6
2019-04-01T01:18:49.773Z,39.2
2019-04-01T01:20:50.088Z,38.3
2019-04-01T01:22:50.257Z,38.3
2019-04-01T01:24:50.485Z,39.7
2019-04-01T01:26:49.990Z,38.7
2019-04-01T01:28:50.209Z,38.7
2019-04-01T01:30:50.476Z,38.7
2019-04-01T01:32:49.884Z,39.2
2019-04-01T01:34:49.606Z,39.2
2019-04-01T01:36:50.146Z,41.3
2019-04-01T01:38:50.423Z,39.2
2019-04-01T01:40:49.781Z,40.4
2019-04-01T01:42:50.019Z,40.4
2019-04-01T01:44:50.284Z,40.0
2019-04-01T01:46:49.614Z,40.0
2019-04-01T01:48:49.883Z,39.5
2019-04-01T01:50:50.027Z,40.6
2019-04-01T01:52:50.216Z,40.0
2019-04-01T01:54:49.539Z,40.0
2019-04-01T01:56:50.047Z,39.9
2019-04-01T01:58:50.343Z,40.5
2019-04-01T02:00:49.673Z,40.4
2019-04-01T02:02:49.983Z,40.4
2019-04-01T02:04:49.644Z,39.5
2019-04-01T02:06:50.179Z,40.3
2019-04-01T02:08:49.906Z,39.2
2019-04-01T02:10:50.195Z,39.2
2019-04-01T02:12:50.428Z,39.6
2019-04-01T02:14:49.638Z,39.6
2019-04-01T02:16:50.000Z,39.6
2019-04-01T02:18:50.197Z,39.7
2019-04-01T02:20:50.420Z,39.6
2019-04-01T02:22:49.577Z,41.0
2019-04-01T02:24:49.885Z,41.0
2019-04-01T02:26:50.244Z,41.0
2019-04-01T02:28:50.472Z,40.3
2019-04-01T02:30:49.693Z,40.3
2019-04-01T02:32:50.213Z,40.4
2019-04-01T02:34:49.915Z,40.4
2019-04-01T02:36:50.267Z,39.8
2019-04-01T02:38:50.516Z,39.9
2019-04-01T02:40:49.815Z,39.9
2019-04-01T02:42:50.236Z,40.3
2019-04-01T02:44:50.405Z,40.3
2019-04-01T02:46:49.886Z,40.8
2019-04-01T02:48:50.191Z,40.8
2019-04-01T02:50:50.394Z,39.4
2019-04-01T02:52:49.664Z,39.4
2019-04-01T02:54:49.983Z,40.4
2019-04-01T02:56:50.383Z,41.6
2019-04-01T02:58:49.607Z,41.6
2019-04-01T03:00:49.907Z,40.7
2019-04-01T03:02:50.390Z,40.7
2019-04-01T03:04:50.090Z,40.3
2019-04-01T03:06:50.414Z,41.8
2019-04-01T03:08:49.684Z,41.1
2019-04-01T03:10:50.050Z,42.1
2019-04-01T03:12:50.232Z,42.1
2019-04-01T03:14:49.541Z,42.5
2019-04-01T03:16:49.951Z,42.2
2019-04-01T03:18:50.447Z,43.5
2019-04-01T03:20:49.861Z,43.5
2019-04-01T03:22:50.051Z,43.4
2019-04-01T03:24:50.358Z,43.8
2019-04-01T03:26:49.739Z,41.6
2019-04-01T03:28:50.023Z,42.3
2019-04-01T03:30:50.367Z,42.3
2019-04-01T03:32:49.604Z,42.8
2019-04-01T03:34:50.465Z,42.2
2019-04-01T03:36:49.950Z,42.4
2019-04-01T03:38:50.234Z,43.6
2019-04-01T03:40:49.628Z,43.6
2019-04-01T03:42:49.966Z,42.8
2019-04-01T03:44:55.621Z,42.6
2019-04-01T03:46:50.253Z,42.6
2019-04-01T03:48:50.503Z,44.7
2019-04-01T03:50:49.681Z,44.7
2019-04-01T03:52:49.852Z,42.3
2019-04-01T03:54:50.205Z,43.7
2019-04-01T03:56:49.760Z,43.7
2019-04-01T03:58:50.076Z,44.6
2019-04-01T04:00:50.285Z,44.6
2019-04-01T04:02:49.650Z,42.8
2019-04-01T04:04:49.636Z,42.8
2019-04-01T04:06:49.997Z,43.6
2019-04-01T04:08:50.203Z,44.0
2019-04-01T04:10:50.313Z,44.0
2019-04-01T04:12:50.477Z,43.3
2019-04-01T04:14:51.919Z,43.4
2019-04-01T04:16:50.329Z,41.6
2019-04-01T04:18:49.588Z,41.6
2019-04-01T04:20:49.788Z,43.3
2019-04-01T04:22:50.127Z,43.0
2019-04-01T04:24:50.353Z,40.0
2019-04-01T04:26:50.432Z,40.0
2019-04-01T04:28:49.614Z,41.2
2019-04-01T04:30:49.902Z,41.8
2019-04-01T04:32:50.269Z,42.0
2019-04-01T04:34:50.035Z,42.0
2019-04-01T04:36:50.321Z,42.8
2019-04-01T04:38:50.488Z,42.8
2019-04-01T04:40:49.745Z,43.0
2019-04-01T04:42:49.863Z,42.2
2019-04-01T04:44:50.188Z,43.1
2019-04-01T04:46:49.609Z,43.1
2019-04-01T04:48:49.943Z,42.9
2019-04-01T04:50:50.238Z,43.5
2019-04-01T04:52:50.457Z,43.2
2019-04-01T04:54:49.737Z,42.3
2019-04-01T04:56:50.160Z,42.3
2019-04-01T04:58:50.365Z,42.4
2019-04-01T05:00:49.647Z,42.4
2019-04-01T05:02:49.940Z,43.7
2019-04-01T05:04:49.553Z,43.7
2019-04-01T05:06:49.933Z,43.1
2019-04-01T05:08:50.230Z,41.5
2019-04-01T05:10:50.396Z,42.7
2019-04-01T05:12:49.651Z,42.5
2019-04-01T05:14:49.927Z,42.5
2019-04-01T05:16:50.293Z,40.6
2019-04-01T05:18:49.565Z,42.3
2019-04-01T05:20:49.842Z,42.5
2019-04-01T05:22:50.006Z,42.2
2019-04-01T05:24:50.375Z,42.2
2019-04-01T05:26:49.733Z,45.9
2019-04-01T05:28:49.973Z,43.2
2019-04-01T05:30:50.229Z,43.2
2019-04-01T05:32:50.384Z,43.2
2019-04-01T05:34:50.234Z,40.7
2019-04-01T05:36:50.467Z,39.1
2019-04-01T05:38:49.729Z,39.1
2019-04-01T05:40:49.965Z,39.5
2019-04-01T05:42:50.259Z,39.5
2019-04-01T05:44:50.458Z,39.8
2019-04-01T05:46:49.829Z,38.2
2019-04-01T05:48:50.135Z,38.6
2019-04-01T05:50:50.372Z,37.7
2019-04-01T05:52:49.633Z,37.7
2019-04-01T05:54:49.808Z,36.9
2019-04-01T05:56:50.255Z,35.3
2019-04-01T05:58:50.481Z,33.8
2019-04-01T06:00:49.713Z,33.2
2019-04-01T06:02:50.143Z,34.4
2019-04-01T06:04:49.915Z,34.4
2019-04-01T06:06:50.312Z,32.1
2019-04-01T06:08:50.418Z,34.9
2019-04-01T06:10:49.753Z,30.7
2019-04-01T06:12:49.954Z,32.7
2019-04-01T06:14:50.209Z,32.7
2019-04-01T06:16:49.600Z,25.9
2019-04-01T06:18:49.845Z,29.6
2019-04-01T06:20:50.123Z,25.1
2019-04-01T06:22:50.287Z,25.1
2019-04-01T06:24:50.529Z,24.8
2019-04-01T06:26:49.986Z,24.3
2019-04-01T06:28:50.215Z,20.7
2019-04-01T06:30:50.459Z,20.1
2019-04-01T06:32:49.813Z,20.1
2019-04-01T06:34:53.309Z,20.8
2019-04-01T06:36:49.629Z,18.4
2019-04-01T06:38:49.817Z,18.4
2019-04-01T06:40:50.037Z,18.1
2019-04-01T06:42:50.263Z,17.3
2019-04-01T06:44:50.486Z,17.0
2019-04-01T06:46:49.772Z,16.4
2019-04-01T06:48:49.988Z,15.4
2019-04-01T06:50:50.226Z,15.4
2019-04-01T06:52:50.460Z,16.0
2019-04-01T06:54:49.731Z,15.8
2019-04-01T06:56:50.007Z,15.2
2019-04-01T06:58:50.223Z,15.2
2019-04-01T07:00:50.471Z,13.6
2019-04-01T07:02:49.629Z,13.6
2019-04-01T07:04:50.461Z,13.4
2019-04-01T07:06:49.818Z,13.0
2019-04-01T07:08:50.031Z,13.0
2019-04-01T07:10:50.256Z,12.3
2019-04-01T07:12:50.450Z,12.3
2019-04-01T07:14:49.840Z,11.9
2019-04-01T07:16:50.278Z,10.5
2019-04-01T07:18:50.487Z,11.7
2019-04-01T07:20:49.754Z,11.2
2019-04-01T07:22:50.001Z,11.2
2019-04-01T07:24:50.251Z,11.2
2019-04-01T07:26:49.686Z,11.3
2019-04-01T07:28:49.897Z,11.7
2019-04-01T07:30:50.169Z,11.7
2019-04-01T07:32:50.394Z,11.5
2019-04-01T07:34:50.191Z,10.9
2019-04-01T07:36:50.467Z,11.1
2019-04-01T07:38:49.637Z,11.3
2019-04-01T07:40:49.825Z,11.3
2019-04-01T07:42:50.076Z,11.0
2019-04-01T07:44:50.235Z,11.6
2019-04-01T07:46:49.681Z,11.4
2019-04-01T07:48:50.095Z,11.4
2019-04-01T07:50:50.292Z,11.9
2019-04-01T07:52:49.668Z,11.5
2019-04-01T07:54:49.869Z,11.5
2019-04-01T07:56:50.369Z,11.3
2019-04-01T07:58:49.566Z,11.3
2019-04-01T08:00:49.768Z,12.0
2019-04-01T08:02:50.045Z,10.7
2019-04-01T08:04:49.762Z,11.7
2019-04-01T08:06:50.024Z,11.7
2019-04-01T08:08:50.207Z,11.4
2019-04-01T08:10:50.464Z,11.4
2019-04-01T08:12:49.661Z,11.0
2019-04-01T08:14:49.866Z,11.1
2019-04-01T08:16:50.246Z,11.2
2019-04-01T08:18:50.468Z,11.2
2019-04-01T08:20:49.690Z,10.8
2019-04-01T08:22:49.930Z,10.4
2019-04-01T08:24:50.098Z,10.8
2019-04-01T08:26:50.494Z,10.7
2019-04-01T08:28:49.683Z,10.7
2019-04-01T08:30:49.912Z,10.9
2019-04-01T08:32:50.105Z,11.0
2019-04-01T08:34:49.816Z,11.0
2019-04-01T08:36:50.181Z,11.0
2019-04-01T08:38:50.464Z,11.0
2019-04-01T08:40:50.506Z,11.4
2019-04-01T08:42:49.611Z,11.5
2019-04-01T08:44:49.608Z,11.7
2019-04-01T08:46:49.914Z,11.7
2019-04-01T08:48:49.879Z,11.4
2019-04-01T08:50:49.871Z,11.8
2019-04-01T08:52:49.806Z,12.0
2019-04-01T08:54:52.471Z,12.0
2019-04-01T08:56:49.543Z,12.0
2019-04-01T08:58:49.623Z,12.0
2019-04-01T09:00:49.629Z,11.6
2019-04-01T09:02:49.792Z,11.4
2019-04-01T09:04:50.150Z,11.4
2019-04-01T09:06:50.358Z,13.4
2019-04-01T09:08:50.369Z,13.4
2019-04-01T09:10:50.327Z,14.0
2019-04-01T09:12:50.327Z,12.8
2019-04-01T09:14:50.439Z,11.8
2019-04-01T09:16:49.605Z,11.8
2019-04-01T09:18:49.763Z,11.6
2019-04-01T09:20:49.716Z,12.3
2019-04-01T09:22:49.839Z,13.0
2019-04-01T09:24:49.817Z,13.0
2019-04-01T09:26:50.009Z,13.1
2019-04-01T09:28:50.039Z,13.9
2019-04-01T09:30:50.084Z,12.4
2019-04-01T09:32:50.151Z,13.6
2019-04-01T09:34:49.612Z,13.6
2019-04-01T09:36:49.888Z,13.5
2019-04-01T09:38:49.895Z,14.4
2019-04-01T09:40:49.966Z,13.5
2019-04-01T09:42:49.984Z,12.9
2019-04-01T09:44:50.085Z,12.9
2019-04-01T09:46:50.515Z,13.3
2019-04-01T09:48:49.554Z,13.5
2019-04-01T09:50:49.642Z,13.1
2019-04-01T09:52:49.634Z,13.8
2019-04-01T09:54:49.700Z,13.8
2019-04-01T09:56:49.752Z,13.9
2019-04-01T09:58:49.790Z,14.0
2019-04-01T10:00:53.627Z,12.5
2019-04-01T10:02:49.667Z,12.5
2019-04-01T10:04:50.288Z,12.6
2019-04-01T10:06:50.386Z,13.2
2019-04-01T10:08:50.377Z,13.7
2019-04-01T10:10:50.417Z,13.3
2019-04-01T10:12:50.459Z,13.3
2019-04-01T10:14:50.486Z,13.3
2019-04-01T10:16:49.557Z,13.8
2019-04-01T10:18:49.536Z,13.4
2019-04-01T10:20:49.584Z,13.4
2019-04-01T10:22:49.707Z,13.5
2019-04-01T10:24:49.779Z,13.5
2019-04-01T10:26:49.978Z,13.5
2019-04-01T10:28:50.065Z,14.2
2019-04-01T10:30:50.175Z,14.2
2019-04-01T10:32:50.246Z,14.2
2019-04-01T10:34:49.596Z,14.2
2019-04-01T10:36:49.742Z,14.0
2019-04-01T10:38:49.892Z,14.6
2019-04-01T10:40:49.934Z,14.5
2019-04-01T10:42:49.999Z,14.5
2019-04-01T10:44:50.085Z,14.6
2019-04-01T10:46:50.458Z,15.6
2019-04-01T10:48:49.784Z,15.3
2019-04-01T10:50:50.083Z,14.0
2019-04-01T10:52:50.452Z,14.0
2019-04-01T10:54:49.784Z,14.3
2019-04-01T10:56:50.310Z,14.9
2019-04-01T10:58:49.695Z,14.9
2019-04-01T11:00:50.070Z,15.5
2019-04-01T11:02:50.624Z,15.5
2019-04-01T11:04:50.337Z,15.3
2019-04-01T11:06:49.672Z,14.3
2019-04-01T11:08:50.192Z,14.3
2019-04-01T11:10:50.332Z,15.2
2019-04-01T11:12:50.394Z,15.8
2019-04-01T11:14:50.432Z,14.9
2019-04-01T11:16:50.436Z,15.7
2019-04-01T11:18:49.615Z,15.7
2019-04-01T11:20:49.796Z,16.1
2019-04-01T11:22:50.034Z,16.1
2019-04-01T11:24:50.213Z,15.5
2019-04-01T11:26:49.569Z,16.6
2019-04-01T11:28:49.680Z,16.6
2019-04-01T11:30:50.164Z,16.1
2019-04-01T11:32:49.798Z,15.5
2019-04-01T11:34:49.575Z,16.0
2019-04-01T11:36:50.154Z,16.2
2019-04-01T11:38:49.781Z,16.2
2019-04-01T11:40:50.236Z,16.8
2019-04-01T11:42:49.809Z,16.8
2019-04-01T11:44:50.429Z,15.4
2019-04-01T11:46:49.966Z,15.6
2019-04-01T11:48:50.326Z,16.2
2019-04-01T11:50:49.858Z,16.2
2019-04-01T11:52:50.433Z,16.2
2019-04-01T11:54:49.893Z,14.5
2019-04-01T11:56:50.170Z,14.5
2019-04-01T11:58:50.363Z,14.6
2019-04-01T12:00:49.540Z,16.0
2019-04-01T12:02:49.877Z,14.8
2019-04-01T12:04:50.335Z,14.8
2019-04-01T12:06:49.712Z,15.0
2019-04-01T12:08:49.993Z,15.2
2019-04-01T12:10:50.248Z,15.2
2019-04-01T12:12:50.373Z,14.5
2019-04-01T12:14:49.611Z,14.5
2019-04-01T12:16:50.065Z,14.7
2019-04-01T12:18:50.348Z,14.7
2019-04-01T12:20:49.950Z,15.2
2019-04-01T12:22:50.375Z,14.9
2019-04-01T12:24:49.543Z,14.0
2019-04-01T12:26:50.013Z,14.5
2019-04-01T12:28:50.376Z,14.5
2019-04-01T12:30:49.678Z,14.7
2019-04-01T12:32:50.138Z,14.3
2019-04-01T12:34:49.791Z,14.1
2019-04-01T12:36:50.190Z,14.1
2019-04-01T12:38:53.973Z,13.6
2019-04-01T12:40:50.353Z,14.3
2019-04-01T12:42:51.105Z,13.9
2019-04-01T12:44:50.313Z,13.7
2019-04-01T12:46:49.651Z,13.7
2019-04-01T12:48:49.758Z,12.9
2019-04-01T12:50:50.107Z,13.6
2019-04-01T12:52:50.227Z,13.6
2019-04-01T12:54:50.392Z,14.1
2019-04-01T12:56:49.627Z,14.1
2019-04-01T12:58:49.819Z,15.5
2019-04-01T13:00:51.983Z,14.2
2019-04-01T13:02:50.216Z,14.2
2019-04-01T13:04:51.695Z,15.0
2019-04-01T13:06:51.941Z,15.0
2019-04-01T13:08:50.252Z,14.9
2019-04-01T13:10:50.816Z,14.2
2019-04-01T13:12:50.416Z,14.2
2019-04-01T13:14:49.583Z,14.2
2019-04-01T13:16:50.017Z,13.6
2019-04-01T13:18:50.197Z,13.8
2019-04-01T13:20:52.302Z,13.9
2019-04-01T13:22:50.487Z,15.7
2019-04-01T13:24:49.688Z,15.0
2019-04-01T13:26:51.203Z,15.0
2019-04-01T13:28:50.508Z,14.7
2019-04-01T13:30:49.703Z,15.6
2019-04-01T13:32:49.912Z,14.4
2019-04-01T13:34:50.326Z,14.4
2019-04-01T13:36:50.349Z,13.6
2019-04-01T13:38:49.603Z,13.6
2019-04-01T13:40:49.836Z,13.2
2019-04-01T13:42:50.038Z,13.2
2019-04-01T13:44:51.795Z,15.4
2019-04-01T13:46:51.064Z,15.4
2019-04-01T13:49:00.998Z,16.0
2019-04-01T13:50:50.358Z,13.7
2019-04-01T13:52:49.541Z,13.7
2019-04-01T13:54:49.713Z,12.4
2019-04-01T13:56:50.105Z,12.4
2019-04-01T13:58:50.203Z,13.9
2019-04-01T14:00:50.395Z,14.7
2019-04-01T14:02:49.633Z,13.0
2019-04-01T14:04:50.215Z,13.8
2019-04-01T14:06:49.651Z,13.8
2019-04-01T14:08:51.535Z,14.2
2019-04-01T14:10:50.110Z,14.1
2019-04-01T14:12:50.318Z,14.1
2019-04-01T14:14:50.496Z,14.1
2019-04-01T14:16:49.906Z,14.0
2019-04-01T14:18:50.150Z,13.2
2019-04-01T14:20:50.387Z,12.7
2019-04-01T14:22:49.535Z,13.1
2019-04-01T14:24:49.683Z,13.1
2019-04-01T14:26:49.986Z,12.8
2019-04-01T14:28:50.309Z,12.5
2019-04-01T14:30:50.528Z,12.5
2019-04-01T14:32:49.747Z,12.9
2019-04-01T14:34:50.772Z,12.9
2019-04-01T14:36:50.237Z,12.3
2019-04-01T14:38:50.440Z,11.9
2019-04-01T14:40:49.662Z,11.9
2019-04-01T14:42:49.893Z,13.5
2019-04-01T14:44:50.021Z,13.5
2019-04-01T14:46:50.402Z,13.0
2019-04-01T14:48:49.626Z,14.0
2019-04-01T14:50:49.772Z,14.0
2019-04-01T14:52:50.027Z,12.9
2019-04-01T14:54:50.173Z,12.9
2019-04-01T14:56:49.607Z,11.5
2019-04-01T14:58:49.704Z,14.0
2019-04-01T15:00:49.944Z,12.8
2019-04-01T15:02:50.208Z,12.8
2019-04-01T15:04:49.711Z,14.0
2019-04-01T15:06:49.981Z,13.0
2019-04-01T15:08:50.151Z,13.0
2019-04-01T15:10:50.406Z,12.9
2019-04-01T15:13:05.512Z,12.9
2019-04-01T15:14:49.679Z,12.5
2019-04-01T15:16:50.148Z,12.2
2019-04-01T15:18:50.409Z,12.2
2019-04-01T15:20:49.692Z,14.1
2019-04-01T15:22:50.098Z,13.7
2019-04-01T15:24:50.255Z,12.1
2019-04-01T15:26:49.735Z,12.1
2019-04-01T15:28:49.948Z,12.2
2019-04-01T15:30:50.125Z,12.2
2019-04-01T15:32:50.346Z,12.0
2019-04-01T15:34:50.055Z,12.1
2019-04-01T15:36:50.408Z,12.6
2019-04-01T15:38:51.391Z,12.6
2019-04-01T15:40:49.703Z,12.1
2019-04-01T15:42:49.969Z,12.1
2019-04-01T15:44:50.228Z,12.8
2019-04-01T15:46:49.653Z,11.6
2019-04-01T15:48:49.891Z,11.6
2019-04-01T15:50:50.118Z,11.5
2019-04-01T15:52:50.427Z,12.3
2019-04-01T15:54:49.595Z,11.6
2019-04-01T15:56:49.897Z,11.6
2019-04-01T15:58:51.121Z,11.5
2019-04-01T16:00:50.288Z,12.8
2019-04-01T16:02:49.581Z,13.1
2019-04-01T16:04:50.112Z,13.3
2019-04-01T16:06:50.450Z,13.2
2019-04-01T16:08:50.515Z,12.9
2019-04-01T16:10:50.657Z,12.9
2019-04-01T16:12:49.723Z,12.2
2019-04-01T16:14:49.962Z,12.5
2019-04-01T16:16:50.139Z,12.6
2019-04-01T16:18:50.231Z,12.6
2019-04-01T16:20:50.222Z,13.2
2019-04-01T16:22:50.504Z,13.0
2019-04-01T16:24:49.673Z,13.4
2019-04-01T16:26:49.922Z,13.2
2019-04-01T16:28:49.997Z,13.2
2019-04-01T16:30:50.094Z,14.1
2019-04-01T16:32:50.084Z,13.5
2019-04-01T16:34:50.489Z,13.0
2019-04-01T16:36:49.757Z,12.9
2019-04-01T16:38:49.854Z,12.9
2019-04-01T16:40:52.583Z,13.4
2019-04-01T16:42:49.760Z,13.4
2019-04-01T16:44:49.711Z,12.8
2019-04-01T16:46:49.959Z,12.8
2019-04-01T16:48:50.036Z,12.7
2019-04-01T16:50:50.126Z,12.8
2019-04-01T16:52:50.196Z,12.7
2019-04-01T16:54:50.502Z,13.4
2019-04-01T16:56:49.948Z,13.4
2019-04-01T16:58:50.017Z,13.9
2019-04-01T17:00:50.127Z,13.2
2019-04-01T17:02:51.771Z,13.4
2019-04-01T17:04:50.223Z,13.4
2019-04-01T17:06:49.533Z,13.0
2019-04-01T17:08:49.544Z,13.0
2019-04-01T17:10:49.641Z,13.3
2019-04-01T17:12:49.721Z,12.3
2019-04-01T17:14:49.741Z,12.3
2019-04-01T17:16:49.877Z,12.4
2019-04-01T17:18:49.919Z,12.4
2019-04-01T17:20:49.979Z,11.8
2019-04-01T17:22:50.060Z,11.9
2019-04-01T17:24:50.167Z,11.9
2019-04-01T17:26:51.419Z,12.4
2019-04-01T17:28:50.515Z,12.2
2019-04-01T17:30:49.565Z,11.6
2019-04-01T17:32:49.631Z,11.6
2019-04-01T17:34:50.218Z,12.2
2019-04-01T17:36:50.368Z,12.2
2019-04-01T17:38:50.342Z,12.2
2019-04-01T17:40:50.363Z,11.6
2019-04-01T17:42:50.497Z,12.1
2019-04-01T17:44:49.566Z,12.1
2019-04-01T17:46:49.696Z,12.0
2019-04-01T17:48:49.775Z,11.9
2019-04-01T17:50:49.763Z,11.9
2019-04-01T17:52:49.854Z,12.4
2019-04-01T17:54:49.986Z,12.4
2019-04-01T17:56:50.182Z,12.0
2019-04-01T17:58:50.247Z,12.5
2019-04-01T18:00:50.278Z,12.6
2019-04-01T18:02:50.273Z,12.6
2019-04-01T18:04:49.672Z,12.5
2019-04-01T18:06:49.864Z,12.5
2019-04-01T18:08:49.895Z,12.0
2019-04-01T18:10:50.036Z,12.3
2019-04-01T18:12:50.421Z,12.3
2019-04-01T18:14:50.258Z,11.9
2019-04-01T18:16:50.493Z,11.9
2019-04-01T18:18:49.529Z,12.2
2019-04-01T18:20:49.609Z,12.2
2019-04-01T18:22:49.662Z,12.0
2019-04-01T18:24:49.671Z,12.0
2019-04-01T18:26:49.827Z,12.3
2019-04-01T18:28:49.924Z,12.1
2019-04-01T18:30:49.961Z,12.3
2019-04-01T18:32:55.315Z,12.1
2019-04-01T18:34:50.167Z,12.1
2019-04-01T18:36:52.528Z,11.7
2019-04-01T18:38:49.606Z,12.0
2019-04-01T18:40:49.688Z,12.2
2019-04-01T18:42:49.690Z,12.2
2019-04-01T18:44:49.720Z,12.2
2019-04-01T18:46:49.979Z,11.8
2019-04-01T18:48:50.033Z,12.0
2019-04-01T18:50:50.097Z,12.0
2019-04-01T18:52:50.144Z,12.0
2019-04-01T18:54:50.142Z,11.9
2019-04-01T18:56:50.321Z,11.6
2019-04-01T18:58:50.336Z,11.2
2019-04-01T19:00:50.395Z,11.5
2019-04-01T19:02:50.410Z,11.5
2019-04-01T19:04:49.803Z,11.8
2019-04-01T19:06:50.052Z,12.4
2019-04-01T19:08:50.099Z,11.9
2019-04-01T19:11:02.342Z,11.9
2019-04-01T19:12:50.160Z,11.7
2019-04-01T19:14:50.205Z,11.9
2019-04-01T19:16:50.433Z,12.0
2019-04-01T19:18:49.525Z,12.0
2019-04-01T19:21:01.755Z,11.2
2019-04-01T19:22:49.653Z,11.5
2019-04-01T19:24:49.644Z,11.9
2019-04-01T19:26:50.011Z,12.4
2019-04-01T19:28:49.991Z,12.7
2019-04-01T19:30:50.032Z,12.7
2019-04-01T19:32:50.147Z,12.5
2019-04-01T19:34:49.601Z,12.1
2019-04-01T19:36:49.727Z,12.8
2019-04-01T19:38:49.769Z,12.9
2019-04-01T19:40:49.821Z,12.9
2019-04-01T19:42:49.842Z,12.9
2019-04-01T19:44:49.856Z,12.7
2019-04-01T19:46:50.009Z,12.5
2019-04-01T19:48:49.992Z,12.5
2019-04-01T19:50:50.016Z,12.0
2019-04-01T19:52:50.068Z,11.7
2019-04-01T19:54:50.195Z,11.7
2019-04-01T19:56:49.535Z,12.1
2019-04-01T19:58:49.583Z,11.8
2019-04-01T20:00:49.614Z,11.8
2019-04-01T20:02:49.770Z,11.8
2019-04-01T20:04:50.075Z,11.7
2019-04-01T20:06:50.138Z,11.9
2019-04-01T20:08:50.138Z,12.1
2019-04-01T20:10:50.137Z,12.1
2019-04-01T20:12:51.121Z,11.3
2019-04-01T20:14:50.103Z,11.5
2019-04-01T20:16:50.247Z,10.9
2019-04-01T20:18:50.250Z,10.9
2019-04-01T20:20:50.370Z,11.9
2019-04-01T20:22:50.420Z,10.8
2019-04-01T20:24:50.487Z,11.1
2019-04-01T20:26:49.643Z,11.2
2019-04-01T20:28:49.700Z,11.2
2019-04-01T20:30:49.639Z,10.9
2019-04-01T20:32:49.769Z,11.5
2019-04-01T20:34:57.695Z,11.2
2019-04-01T20:36:49.994Z,10.9
2019-04-01T20:38:50.149Z,10.9
2019-04-01T20:40:50.212Z,10.8
2019-04-01T20:42:50.439Z,11.2
2019-04-01T20:44:49.544Z,10.7
2019-04-01T20:46:49.669Z,10.7
2019-04-01T20:48:49.764Z,10.2
2019-04-01T20:50:49.852Z,10.3
2019-04-01T20:52:50.740Z,10.6
2019-04-01T20:54:49.901Z,11.1
2019-04-01T20:56:50.126Z,11.1
2019-04-01T20:58:50.136Z,10.6
2019-04-01T21:00:50.292Z,10.5
2019-04-01T21:02:50.269Z,9.8
2019-04-01T21:04:49.831Z,10.3
2019-04-01T21:06:50.465Z,10.3
2019-04-01T21:08:50.521Z,9.7
2019-04-01T21:10:49.608Z,10.4
2019-04-01T21:12:49.668Z,10.5
2019-04-01T21:14:49.772Z,10.1
2019-04-01T21:16:49.960Z,10.1
2019-04-01T21:18:50.085Z,10.0
2019-04-01T21:20:50.213Z,10.5
2019-04-01T21:22:50.246Z,9.7
2019-04-01T21:24:50.275Z,10.3
2019-04-01T21:26:50.533Z,10.3
2019-04-01T21:28:50.499Z,9.9
2019-04-01T21:30:49.554Z,10.0
2019-04-01T21:32:49.542Z,10.0
2019-04-01T21:34:50.032Z,10.0
2019-04-01T21:36:50.250Z,9.1
2019-04-01T21:38:50.273Z,9.3
2019-04-01T21:40:50.292Z,9.3
2019-04-01T21:42:51.951Z,9.4
2019-04-01T21:44:50.022Z,9.4
2019-04-01T21:46:50.187Z,9.4
2019-04-01T21:48:50.169Z,9.1
2019-04-01T21:50:50.272Z,8.9
2019-04-01T21:52:50.361Z,9.3
2019-04-01T21:54:50.384Z,9.3
2019-04-01T21:56:49.633Z,9.3
2019-04-01T21:58:49.706Z,8.8
2019-04-01T22:00:49.782Z,8.8
2019-04-01T22:02:49.863Z,8.8
2019-04-01T22:04:50.358Z,8.8
2019-04-01T22:06:50.470Z,8.7
2019-04-01T22:08:50.464Z,9.2
2019-04-01T22:10:50.495Z,9.1
2019-04-01T22:12:52.781Z,9.1
2019-04-01T22:14:49.879Z,8.7
2019-04-01T22:16:50.094Z,9.3
2019-04-01T22:18:50.157Z,9.0
2019-04-01T22:20:50.192Z,9.2
2019-04-01T22:22:50.301Z,9.2
2019-04-01T22:24:50.311Z,8.9
2019-04-01T22:26:50.408Z,9.1
2019-04-01T22:28:51.588Z,9.1
2019-04-01T22:30:49.723Z,8.5
2019-04-01T22:32:49.690Z,8.5
2019-04-01T22:34:50.076Z,8.5
2019-04-01T22:36:50.265Z,9.8
2019-04-01T22:38:50.363Z,8.9
2019-04-01T22:40:50.519Z,8.8
2019-04-01T22:42:49.620Z,8.8
2019-04-01T22:44:49.702Z,8.6
2019-04-01T22:46:49.835Z,9.0
2019-04-01T22:48:49.873Z,8.4
2019-04-01T22:50:49.929Z,8.4
2019-04-01T22:52:50.031Z,8.1
2019-04-01T22:54:50.126Z,8.6
2019-04-01T22:56:50.347Z,8.5
2019-04-01T22:58:51.641Z,9.3
2019-04-01T23:00:49.663Z,9.3
2019-04-01T23:02:49.841Z,8.8
2019-04-01T23:04:50.262Z,8.8
2019-04-01T23:06:50.486Z,8.8
2019-04-01T23:08:49.576Z,9.0
2019-04-01T23:10:50.526Z,9.0
2019-04-01T23:12:51.462Z,9.5
2019-04-01T23:14:49.609Z,9.5
2019-04-01T23:16:49.996Z,8.9
2019-04-01T23:18:50.024Z,8.9
2019-04-01T23:20:50.112Z,8.9
2019-04-01T23:22:50.159Z,8.6
2019-04-01T23:24:50.228Z,8.6
2019-04-01T23:26:50.310Z,8.6
2019-04-01T23:28:50.398Z,9.0
2019-04-01T23:30:50.443Z,9.0
2019-04-01T23:32:49.612Z,9.1
2019-04-01T23:34:50.080Z,8.6
2019-04-01T23:36:50.191Z,9.2
2019-04-01T23:38:50.276Z,9.2
2019-04-01T23:40:50.320Z,8.5
2019-04-01T23:42:50.364Z,9.0
2019-04-01T23:44:52.621Z,8.7
2019-04-01T23:46:49.967Z,8.7
2019-04-01T23:48:49.988Z,8.5
2019-04-01T23:50:50.015Z,9.1
2019-04-01T23:52:50.092Z,9.1
2019-04-01T23:54:50.109Z,8.8
2019-04-01T23:56:50.375Z,8.9
2019-04-01T23:58:51.596Z,8.9
